• +62 31 8667540

  • +62 31 8668989 (24 jam)

  • Stasiun Meteorologi Juanda

  • Bandar Udara Juanda - Sidoarjo

  • 08:00 - 16:00

  • Senin sampai Jumat

METAR 3 JAM TERAKHIR

Data at: 0703 UTC 19 Jan 2018

WARR 190600Z 25004KT 190V310 9000 SCT018CB 31/24 Q1005 NOSIG
WARR 190500Z 27005KT 230V310 9000 SCT020TCU 31/24 Q1007 NOSIG

Peringatan Dini Cuaca Hari Ini

Waspadai Hujan dengan Intensitas Sedang hingga Lebat disertai Petir dan Angin Kencang Sesaat pada siang atau sore hari di wilayah Batu, Jombang, Kota dan Kab.Malang, Kota dan Kab.Kediri, Kota dan Kab.Blitar, Tulungagung, Kota dan Kab.Mojokerto, Kota dan Kab.Probolinggo, Kota dan Kab.Pasuruan, Magetan, Bangkalan, Surabaya, Lamongan, Lumajang, Situbondo. Serta Waspadai Ketinggian Gelombang mencapai 3.5 m di Perairan Selatan Jawa Timur, dan ketinggian mencapai 2.5m di Perairan Kep.Masalembu, dan Perairan P. Bawean.